sensor_id;sensor_type;location;lat;lon;timestamp;pressure;altitude;pressure_sealevel;temperature;humidity
57606;BME280;43430;48.204;11.556;2022-11-20T00:03:38;95505.25;;;4.56;100.00
57606;BME280;43430;48.204;11.556;2022-11-20T00:06:05;95500.81;;;4.50;100.00
57606;BME280;43430;48.204;11.556;2022-11-20T00:08:31;95504.44;;;4.49;100.00
57606;BME280;43430;48.204;11.556;2022-11-20T00:10:56;95503.66;;;4.55;100.00
57606;BME280;43430;48.204;11.556;2022-11-20T00:13:22;95504.25;;;4.57;100.00
57606;BME280;43430;48.204;11.556;2022-11-20T00:15:47;95507.84;;;4.49;100.00
57606;BME280;43430;48.204;11.556;2022-11-20T00:18:13;95501.03;;;4.55;100.00
57606;BME280;43430;48.204;11.556;2022-11-20T00:20:38;95511.13;;;4.65;100.00
57606;BME280;43430;48.204;11.556;2022-11-20T00:23:03;95505.06;;;4.58;100.00
57606;BME280;43430;48.204;11.556;2022-11-20T00:25:29;95505.50;;;4.61;100.00
57606;BME280;43430;48.204;11.556;2022-11-20T00:27:54;95512.69;;;4.59;100.00
57606;BME280;43430;48.204;11.556;2022-11-20T00:30:19;95505.44;;;4.48;100.00
57606;BME280;43430;48.204;11.556;2022-11-20T00:32:44;95515.88;;;4.48;100.00
57606;BME280;43430;48.204;11.556;2022-11-20T00:35:10;95509.44;;;4.50;100.00
57606;BME280;43430;48.204;11.556;2022-11-20T00:37:35;95511.47;;;4.48;100.00
57606;BME280;43430;48.204;11.556;2022-11-20T00:40:00;95516.84;;;4.47;100.00
57606;BME280;43430;48.204;11.556;2022-11-20T00:42:26;95523.09;;;4.46;100.00
57606;BME280;43430;48.204;11.556;2022-11-20T00:44:51;95520.28;;;4.41;100.00
57606;BME280;43430;48.204;11.556;2022-11-20T00:47:16;95526.50;;;4.46;100.00
57606;BME280;43430;48.204;11.556;2022-11-20T00:49:42;95519.06;;;4.43;100.00
57606;BME280;43430;48.204;11.556;2022-11-20T00:52:07;95526.13;;;4.49;100.00
57606;BME280;43430;48.204;11.556;2022-11-20T00:54:32;95518.66;;;4.46;100.00
57606;BME280;43430;48.204;11.556;2022-11-20T00:56:58;95526.91;;;4.50;100.00
57606;BME280;43430;48.204;11.556;2022-11-20T00:59:23;95524.31;;;4.50;100.00
57606;BME280;43430;48.204;11.556;2022-11-20T01:01:48;95520.88;;;4.49;100.00
57606;BME280;43430;48.204;11.556;2022-11-20T01:04:14;95524.09;;;4.45;100.00
57606;BME280;43430;48.204;11.556;2022-11-20T01:06:39;95529.13;;;4.53;100.00
57606;BME280;43430;48.204;11.556;2022-11-20T01:09:08;95520.72;;;4.51;100.00
57606;BME280;43430;48.204;11.556;2022-11-20T01:11:37;95525.34;;;4.56;100.00
57606;BME280;43430;48.204;11.556;2022-11-20T01:14:05;95540.19;;;4.48;100.00
57606;BME280;43430;48.204;11.556;2022-11-20T01:16:37;95528.31;;;4.46;100.00
57606;BME280;43430;48.204;11.556;2022-11-20T01:19:05;95533.16;;;4.49;100.00
57606;BME280;43430;48.204;11.556;2022-11-20T01:21:33;95533.16;;;4.56;100.00
57606;BME280;43430;48.204;11.556;2022-11-20T01:24:00;95530.94;;;4.52;100.00
57606;BME280;43430;48.204;11.556;2022-11-20T01:26:31;95531.75;;;4.53;100.00
57606;BME280;43430;48.204;11.556;2022-11-20T01:28:58;95526.75;;;4.58;100.00
57606;BME280;43430;48.204;11.556;2022-11-20T01:31:26;95528.56;;;4.64;100.00
57606;BME280;43430;48.204;11.556;2022-11-20T01:33:54;95532.00;;;4.58;100.00
57606;BME280;43430;48.204;11.556;2022-11-20T01:36:21;95530.19;;;4.59;100.00
57606;BME280;43430;48.204;11.556;2022-11-20T01:38:47;95533.16;;;4.56;100.00
57606;BME280;43430;48.204;11.556;2022-11-20T01:41:14;95539.78;;;4.51;100.00
57606;BME280;43430;48.204;11.556;2022-11-20T01:44:00;95538.38;;;4.49;100.00
57606;BME280;43430;48.204;11.556;2022-11-20T01:46:26;95535.56;;;4.57;100.00
57606;BME280;43430;48.204;11.556;2022-11-20T01:49:11;95540.66;;;4.65;100.00
57606;BME280;43430;48.204;11.556;2022-11-20T01:51:44;95538.00;;;4.59;100.00
57606;BME280;43430;48.204;11.556;2022-11-20T01:54:23;95534.81;;;4.63;100.00
57606;BME280;43430;48.204;11.556;2022-11-20T01:56:51;95531.59;;;4.61;100.00
57606;BME280;43430;48.204;11.556;2022-11-20T01:59:22;95533.19;;;4.62;100.00
57606;BME280;43430;48.204;11.556;2022-11-20T02:01:49;95532.00;;;4.58;100.00
57606;BME280;43430;48.204;11.556;2022-11-20T02:04:15;95532.56;;;4.60;100.00
57606;BME280;43430;48.204;11.556;2022-11-20T02:06:48;95530.34;;;4.57;100.00
57606;BME280;43430;48.204;11.556;2022-11-20T02:09:15;95537.22;;;4.58;100.00
57606;BME280;43430;48.204;11.556;2022-11-20T02:11:41;95525.97;;;4.58;100.00
57606;BME280;43430;48.204;11.556;2022-11-20T02:14:07;95525.97;;;4.58;100.00
57606;BME280;43430;48.204;11.556;2022-11-20T02:16:38;95533.56;;;4.52;100.00
57606;BME280;43430;48.204;11.556;2022-11-20T02:19:09;95534.38;;;4.60;100.00
57606;BME280;43430;48.204;11.556;2022-11-20T02:21:47;95534.66;;;4.71;100.00
57606;BME280;43430;48.204;11.556;2022-11-20T02:24:15;95530.81;;;4.74;100.00
57606;BME280;43430;48.204;11.556;2022-11-20T02:29:25;95525.56;;;4.67;100.00
57606;BME280;43430;48.204;11.556;2022-11-20T02:31:51;95530.19;;;4.65;100.00
57606;BME280;43430;48.204;11.556;2022-11-20T02:34:17;95526.75;;;4.58;100.00
57606;BME280;43430;48.204;11.556;2022-11-20T02:36:42;95521.56;;;4.65;100.00
57606;BME280;43430;48.204;11.556;2022-11-20T02:39:11;95521.97;;;4.62;100.00
57606;BME280;43430;48.204;11.556;2022-11-20T02:41:38;95527.75;;;4.57;100.00
57606;BME280;43430;48.204;11.556;2022-11-20T02:44:05;95524.72;;;4.53;100.00
57606;BME280;43430;48.204;11.556;2022-11-20T02:46:31;95528.13;;;4.54;100.00
57606;BME280;43430;48.204;11.556;2022-11-20T02:48:58;95527.56;;;4.59;100.00
57606;BME280;43430;48.204;11.556;2022-11-20T02:51:23;95529.00;;;4.61;100.00
57606;BME280;43430;48.204;11.556;2022-11-20T02:53:49;95525.75;;;4.59;100.00
57606;BME280;43430;48.204;11.556;2022-11-20T02:56:14;95527.59;;;4.65;100.00
57606;BME280;43430;48.204;11.556;2022-11-20T02:58:40;95530.78;;;4.67;100.00
57606;BME280;43430;48.204;11.556;2022-11-20T03:01:05;95524.16;;;4.58;100.00
57606;BME280;43430;48.204;11.556;2022-11-20T03:03:31;95522.50;;;4.50;100.00
57606;BME280;43430;48.204;11.556;2022-11-20T03:05:59;95522.13;;;4.60;100.00
57606;BME280;43430;48.204;11.556;2022-11-20T03:08:24;95525.19;;;4.70;100.00
57606;BME280;43430;48.204;11.556;2022-11-20T03:10:49;95520.16;;;4.69;100.00
57606;BME280;43430;48.204;11.556;2022-11-20T03:13:15;95519.94;;;4.64;100.00
57606;BME280;43430;48.204;11.556;2022-11-20T03:15:40;95511.50;;;4.62;100.00
57606;BME280;43430;48.204;11.556;2022-11-20T03:18:05;95514.31;;;4.67;100.00
57606;BME280;43430;48.204;11.556;2022-11-20T03:20:32;95513.75;;;4.65;100.00
57606;BME280;43430;48.204;11.556;2022-11-20T03:22:58;95511.50;;;4.55;100.00
57606;BME280;43430;48.204;11.556;2022-11-20T03:25:24;95509.84;;;4.54;100.00
57606;BME280;43430;48.204;11.556;2022-11-20T03:27:49;95504.06;;;4.59;100.00
57606;BME280;43430;48.204;11.556;2022-11-20T03:30:14;95500.66;;;4.58;100.00
57606;BME280;43430;48.204;11.556;2022-11-20T03:32:40;95500.66;;;4.58;100.00
57606;BME280;43430;48.204;11.556;2022-11-20T03:35:06;95502.44;;;4.51;100.00
57606;BME280;43430;48.204;11.556;2022-11-20T03:37:31;95506.25;;;4.55;100.00
57606;BME280;43430;48.204;11.556;2022-11-20T03:39:57;95504.63;;;4.54;100.00
57606;BME280;43430;48.204;11.556;2022-11-20T03:42:22;95499.41;;;4.54;100.00
57606;BME280;43430;48.204;11.556;2022-11-20T03:45:06;95501.81;;;4.49;100.00
57606;BME280;43430;48.204;11.556;2022-11-20T03:47:32;95501.44;;;4.52;100.00
57606;BME280;43430;48.204;11.556;2022-11-20T03:49:57;95506.03;;;4.50;100.00
57606;BME280;43430;48.204;11.556;2022-11-20T03:52:22;95511.47;;;4.48;100.00
57606;BME280;43430;48.204;11.556;2022-11-20T03:54:48;95507.88;;;4.56;100.00
57606;BME280;43430;48.204;11.556;2022-11-20T03:57:13;95501.44;;;4.52;100.00
57606;BME280;43430;48.204;11.556;2022-11-20T03:59:38;95502.22;;;4.52;100.00
57606;BME280;43430;48.204;11.556;2022-11-20T04:02:04;95502.03;;;4.54;100.00
57606;BME280;43430;48.204;11.556;2022-11-20T04:04:29;95504.03;;;4.52;100.00
57606;BME280;43430;48.204;11.556;2022-11-20T04:06:54;95496.97;;;4.46;100.00
57606;BME280;43430;48.204;11.556;2022-11-20T04:09:20;95505.84;;;4.51;100.00
57606;BME280;43430;48.204;11.556;2022-11-20T04:11:45;95505.44;;;4.48;100.00
57606;BME280;43430;48.204;11.556;2022-11-20T04:14:15;95507.84;;;4.49;100.00
57606;BME280;43430;48.204;11.556;2022-11-20T04:16:41;95508.28;;;4.60;100.00
57606;BME280;43430;48.204;11.556;2022-11-20T04:19:10;95492.19;;;4.56;100.00
57606;BME280;43430;48.204;11.556;2022-11-20T04:21:36;95503.44;;;4.57;100.00
57606;BME280;43430;48.204;11.556;2022-11-20T04:24:02;95505.63;;;4.53;100.00
57606;BME280;43430;48.204;11.556;2022-11-20T04:26:28;95507.63;;;4.44;100.00
57606;BME280;43430;48.204;11.556;2022-11-20T04:28:54;95506.06;;;4.57;100.00
57606;BME280;43430;48.204;11.556;2022-11-20T04:31:23;95504.22;;;4.50;100.00
57606;BME280;43430;48.204;11.556;2022-11-20T04:33:48;95500.25;;;4.55;100.00
57606;BME280;43430;48.204;11.556;2022-11-20T04:36:19;95503.03;;;4.53;100.00
57606;BME280;43430;48.204;11.556;2022-11-20T04:38:45;95498.22;;;4.57;100.00
57606;BME280;43430;48.204;11.556;2022-11-20T04:41:15;95515.31;;;4.59;100.00
57606;BME280;43430;48.204;11.556;2022-11-20T04:43:41;95507.47;;;4.59;100.00
57606;BME280;43430;48.204;11.556;2022-11-20T04:46:06;95515.94;;;4.61;100.00
57606;BME280;43430;48.204;11.556;2022-11-20T04:48:32;95512.91;;;4.58;100.00
57606;BME280;43430;48.204;11.556;2022-11-20T04:50:57;95521.13;;;4.55;100.00
57606;BME280;43430;48.204;11.556;2022-11-20T04:53:23;95513.28;;;4.55;100.00
57606;BME280;43430;48.204;11.556;2022-11-20T04:55:49;95517.13;;;4.59;100.00
57606;BME280;43430;48.204;11.556;2022-11-20T04:58:15;95522.91;;;4.54;100.00
57606;BME280;43430;48.204;11.556;2022-11-20T05:00:40;95517.69;;;4.54;100.00
57606;BME280;43430;48.204;11.556;2022-11-20T05:03:06;95513.06;;;4.49;100.00
57606;BME280;43430;48.204;11.556;2022-11-20T05:05:33;95510.28;;;4.51;100.00
57606;BME280;43430;48.204;11.556;2022-11-20T05:07:59;95513.47;;;4.53;100.00
57606;BME280;43430;48.204;11.556;2022-11-20T05:10:25;95514.47;;;4.52;100.00
57606;BME280;43430;48.204;11.556;2022-11-20T05:12:51;95519.69;;;4.45;100.00
57606;BME280;43430;48.204;11.556;2022-11-20T05:15:16;95522.31;;;4.52;100.00
57606;BME280;43430;48.204;11.556;2022-11-20T05:17:47;95515.88;;;4.48;100.00
57606;BME280;43430;48.204;11.556;2022-11-20T05:20:13;95525.53;;;4.47;100.00
57606;BME280;43430;48.204;11.556;2022-11-20T05:22:39;95512.63;;;4.39;100.00
57606;BME280;43430;48.204;11.556;2022-11-20T05:25:04;95520.72;;;4.51;100.00
57606;BME280;43430;48.204;11.556;2022-11-20T05:27:30;95511.88;;;4.52;100.00
57606;BME280;43430;48.204;11.556;2022-11-20T05:29:55;95513.44;;;4.46;100.00
57606;BME280;43430;48.204;11.556;2022-11-20T05:32:20;95515.50;;;4.51;100.00
57606;BME280;43430;48.204;11.556;2022-11-20T05:34:46;95516.47;;;4.50;100.00
57606;BME280;43430;48.204;11.556;2022-11-20T05:37:11;95511.88;;;4.52;100.00
57606;BME280;43430;48.204;11.556;2022-11-20T05:39:36;95507.41;;;4.46;100.00
57606;BME280;43430;48.204;11.556;2022-11-20T05:42:02;95510.81;;;4.40;100.00
57606;BME280;43430;48.204;11.556;2022-11-20T05:44:45;95506.22;;;4.42;100.00
57606;BME280;43430;48.204;11.556;2022-11-20T05:47:11;95506.00;;;4.43;100.00
57606;BME280;43430;48.204;11.556;2022-11-20T05:49:36;95514.63;;;4.44;100.00
57606;BME280;43430;48.204;11.556;2022-11-20T05:52:01;95515.88;;;4.48;100.00
57606;BME280;43430;48.204;11.556;2022-11-20T05:54:27;95508.47;;;4.51;100.00
57606;BME280;43430;48.204;11.556;2022-11-20T05:56:52;95514.25;;;4.47;100.00
57606;BME280;43430;48.204;11.556;2022-11-20T05:59:17;95511.84;;;4.45;100.00
57606;BME280;43430;48.204;11.556;2022-11-20T06:01:43;95511.44;;;4.42;100.00
57606;BME280;43430;48.204;11.556;2022-11-20T06:04:08;95508.19;;;4.40;100.00
57606;BME280;43430;48.204;11.556;2022-11-20T06:06:33;95515.84;;;4.41;100.00
57606;BME280;43430;48.204;11.556;2022-11-20T06:08:58;95513.25;;;4.41;100.00
57606;BME280;43430;48.204;11.556;2022-11-20T06:11:24;95507.22;;;4.41;100.00
57606;BME280;43430;48.204;11.556;2022-11-20T06:13:50;95517.63;;;4.34;100.00
57606;BME280;43430;48.204;11.556;2022-11-20T06:16:17;95519.03;;;4.37;100.00
57606;BME280;43430;48.204;11.556;2022-11-20T06:18:44;95515.00;;;4.34;100.00
57606;BME280;43430;48.204;11.556;2022-11-20T06:21:12;95517.00;;;4.32;100.00
57606;BME280;43430;48.204;11.556;2022-11-20T06:23:38;95508.00;;;4.35;100.00
57606;BME280;43430;48.204;11.556;2022-11-20T06:26:15;95506.97;;;4.36;100.00
57606;BME280;43430;48.204;11.556;2022-11-20T06:28:41;95516.59;;;4.28;100.00
57606;BME280;43430;48.204;11.556;2022-11-20T06:31:10;95517.16;;;4.24;100.00
57606;BME280;43430;48.204;11.556;2022-11-20T06:33:37;95516.91;;;4.12;100.00
57606;BME280;43430;48.204;11.556;2022-11-20T06:36:03;95521.13;;;4.13;100.00
57606;BME280;43430;48.204;11.556;2022-11-20T06:38:28;95532.34;;;4.07;100.00
57606;BME280;43430;48.204;11.556;2022-11-20T06:40:54;95536.16;;;4.11;100.00
57606;BME280;43430;48.204;11.556;2022-11-20T06:43:20;95525.31;;;4.08;100.00
57606;BME280;43430;48.204;11.556;2022-11-20T06:45:46;95530.53;;;4.08;100.00
57606;BME280;43430;48.204;11.556;2022-11-20T06:48:11;95525.13;;;4.16;100.00
57606;BME280;43430;48.204;11.556;2022-11-20T06:50:37;95520.50;;;4.11;100.00
57606;BME280;43430;48.204;11.556;2022-11-20T06:53:03;95524.94;;;4.11;100.00
57606;BME280;43430;48.204;11.556;2022-11-20T06:55:30;95523.16;;;4.18;100.00
57606;BME280;43430;48.204;11.556;2022-11-20T06:57:55;95528.16;;;4.19;100.00
57606;BME280;43430;48.204;11.556;2022-11-20T07:00:21;95534.78;;;4.15;100.00
57606;BME280;43430;48.204;11.556;2022-11-20T07:02:46;95533.22;;;4.21;100.00
57606;BME280;43430;48.204;11.556;2022-11-20T07:05:12;95527.41;;;4.25;100.00
57606;BME280;43430;48.204;11.556;2022-11-20T07:07:37;95533.31;;;4.41;100.00
57606;BME280;43430;48.204;11.556;2022-11-20T07:10:02;95531.50;;;4.41;100.00
57606;BME280;43430;48.204;11.556;2022-11-20T07:12:28;95531.84;;;4.32;100.00
57606;BME280;43430;48.204;11.556;2022-11-20T07:14:53;95535.50;;;4.37;100.00
57606;BME280;43430;48.204;11.556;2022-11-20T07:17:19;95531.91;;;4.38;100.00
57606;BME280;43430;48.204;11.556;2022-11-20T07:19:44;95534.13;;;4.41;100.00
57606;BME280;43430;48.204;11.556;2022-11-20T07:22:09;95530.75;;;4.47;100.00
57606;BME280;43430;48.204;11.556;2022-11-20T07:24:35;95534.34;;;4.53;100.00
57606;BME280;43430;48.204;11.556;2022-11-20T07:27:00;95533.34;;;4.54;100.00
57606;BME280;43430;48.204;11.556;2022-11-20T07:29:26;95532.34;;;4.48;100.00
57606;BME280;43430;48.204;11.556;2022-11-20T07:31:51;95538.97;;;4.44;100.00
57606;BME280;43430;48.204;11.556;2022-11-20T07:34:16;95534.75;;;4.50;100.00
57606;BME280;43430;48.204;11.556;2022-11-20T07:36:42;95535.97;;;4.54;100.00
57606;BME280;43430;48.204;11.556;2022-11-20T07:39:07;95543.00;;;4.53;100.00
57606;BME280;43430;48.204;11.556;2022-11-20T07:41:33;95545.22;;;4.57;100.00
57606;BME280;43430;48.204;11.556;2022-11-20T07:43:58;95547.03;;;4.56;100.00
57606;BME280;43430;48.204;11.556;2022-11-20T07:46:23;95547.69;;;4.65;100.00
57606;BME280;43430;48.204;11.556;2022-11-20T07:48:49;95548.47;;;4.65;100.00
57606;BME280;43430;48.204;11.556;2022-11-20T07:51:14;95551.09;;;4.65;100.00
57606;BME280;43430;48.204;11.556;2022-11-20T07:53:39;95555.75;;;4.76;100.00
57606;BME280;43430;48.204;11.556;2022-11-20T07:56:05;95542.06;;;4.74;100.00
57606;BME280;43430;48.204;11.556;2022-11-20T07:58:31;95547.69;;;4.78;100.00
57606;BME280;43430;48.204;11.556;2022-11-20T08:01:02;95545.50;;;4.75;100.00
57606;BME280;43430;48.204;11.556;2022-11-20T08:03:27;95555.75;;;4.76;100.00
57606;BME280;43430;48.204;11.556;2022-11-20T08:05:52;95554.75;;;4.84;100.00
57606;BME280;43430;48.204;11.556;2022-11-20T08:08:18;95550.72;;;4.82;100.00
57606;BME280;43430;48.204;11.556;2022-11-20T08:10:43;95556.38;;;4.92;100.00
57606;BME280;43430;48.204;11.556;2022-11-20T08:13:08;95554.41;;;4.94;100.00
57606;BME280;43430;48.204;11.556;2022-11-20T08:15:52;95555.59;;;4.98;100.00
57606;BME280;43430;48.204;11.556;2022-11-20T08:18:18;95556.59;;;4.90;100.00
57606;BME280;43430;48.204;11.556;2022-11-20T08:20:44;95554.63;;;4.99;100.00
57606;BME280;43430;48.204;11.556;2022-11-20T08:23:09;95551.59;;;5.02;100.00
57606;BME280;43430;48.204;11.556;2022-11-20T08:25:36;95556.44;;;5.05;100.00
57606;BME280;43430;48.204;11.556;2022-11-20T08:28:07;95555.03;;;4.96;100.00
57606;BME280;43430;48.204;11.556;2022-11-20T08:30:33;95553.38;;;4.95;100.00
57606;BME280;43430;48.204;11.556;2022-11-20T08:33:05;95547.38;;;5.01;100.00
57606;BME280;43430;48.204;11.556;2022-11-20T08:35:37;95549.78;;;4.96;100.00
57606;BME280;43430;48.204;11.556;2022-11-20T08:38:06;95555.81;;;4.96;100.00
57606;BME280;43430;48.204;11.556;2022-11-20T08:40:32;95556.41;;;4.98;100.00
57606;BME280;43430;48.204;11.556;2022-11-20T08:42:58;95549.81;;;5.03;100.00
57606;BME280;43430;48.204;11.556;2022-11-20T08:45:24;95556.22;;;5.00;100.00
57606;BME280;43430;48.204;11.556;2022-11-20T08:47:49;95548.00;;;5.03;100.00
57606;BME280;43430;48.204;11.556;2022-11-20T08:50:15;95557.47;;;5.11;100.00
57606;BME280;43430;48.204;11.556;2022-11-20T08:52:41;95545.41;;;5.10;100.00
57606;BME280;43430;48.204;11.556;2022-11-20T08:55:08;95538.97;;;5.12;100.00
57606;BME280;43430;48.204;11.556;2022-11-20T08:57:35;95544.19;;;5.12;100.00
57606;BME280;43430;48.204;11.556;2022-11-20T09:00:01;95542.19;;;5.21;100.00
57606;BME280;43430;48.204;11.556;2022-11-20T09:02:27;95537.97;;;5.33;100.00
57606;BME280;43430;48.204;11.556;2022-11-20T09:04:52;95538.41;;;5.37;100.00
57606;BME280;43430;48.204;11.556;2022-11-20T09:07:19;95541.81;;;5.31;100.00
57606;BME280;43430;48.204;11.556;2022-11-20T09:09:44;95528.13;;;5.22;100.00
57606;BME280;43430;48.204;11.556;2022-11-20T09:12:10;95537.56;;;5.30;100.00
57606;BME280;43430;48.204;11.556;2022-11-20T09:14:35;95530.16;;;5.27;100.00
57606;BME280;43430;48.204;11.556;2022-11-20T09:17:00;95538.41;;;5.37;100.00
57606;BME280;43430;48.204;11.556;2022-11-20T09:19:26;95527.53;;;5.33;100.00
57606;BME280;43430;48.204;11.556;2022-11-20T09:21:51;95531.16;;;5.39;100.00
57606;BME280;43430;48.204;11.556;2022-11-20T09:24:17;95528.34;;;5.47;100.00
57606;BME280;43430;48.204;11.556;2022-11-20T09:26:43;95524.34;;;5.51;100.00
57606;BME280;43430;48.204;11.556;2022-11-20T09:29:08;95524.53;;;5.56;100.00
57606;BME280;43430;48.204;11.556;2022-11-20T09:31:34;95520.31;;;5.68;100.00
57606;BME280;43430;48.204;11.556;2022-11-20T09:33:59;95520.91;;;5.70;100.00
57606;BME280;43430;48.204;11.556;2022-11-20T09:36:24;95513.44;;;5.81;100.00
57606;BME280;43430;48.204;11.556;2022-11-20T09:38:50;95517.69;;;5.88;100.00
57606;BME280;43430;48.204;11.556;2022-11-20T09:46:55;95514.47;;;6.06;100.00
57606;BME280;43430;48.204;11.556;2022-11-20T09:49:36;95515.25;;;6.13;100.00
57606;BME280;43430;48.204;11.556;2022-11-20T09:52:25;95512.66;;;6.07;100.00
57606;BME280;43430;48.204;11.556;2022-11-20T09:54:56;95505.56;;;6.21;100.00
57606;BME280;43430;48.204;11.556;2022-11-20T09:57:26;95498.75;;;6.06;100.00
57606;BME280;43430;48.204;11.556;2022-11-20T09:59:57;95499.97;;;6.10;100.00
57606;BME280;43430;48.204;11.556;2022-11-20T10:02:35;95495.75;;;6.09;100.00
57606;BME280;43430;48.204;11.556;2022-11-20T10:05:08;95495.09;;;6.27;100.00
57606;BME280;43430;48.204;11.556;2022-11-20T10:07:44;95499.66;;;6.38;100.00
57606;BME280;43430;48.204;11.556;2022-11-20T10:10:15;95491.44;;;6.35;100.00
57606;BME280;43430;48.204;11.556;2022-11-20T10:15:47;95483.94;;;6.45;100.00
57606;BME280;43430;48.204;11.556;2022-11-20T10:21:07;95489.78;;;6.47;100.00
57606;BME280;43430;48.204;11.556;2022-11-20T10:29:14;95484.94;;;6.51;100.00
57606;BME280;43430;48.204;11.556;2022-11-20T10:31:43;95483.28;;;6.56;100.00
57606;BME280;43430;48.204;11.556;2022-11-20T10:34:19;95492.69;;;6.64;100.00
57606;BME280;43430;48.204;11.556;2022-11-20T10:36:54;95480.78;;;6.75;100.00
57606;BME280;43430;48.204;11.556;2022-11-20T10:39:29;95480.19;;;6.73;100.00
57606;BME280;43430;48.204;11.556;2022-11-20T10:41:58;95486.03;;;6.75;100.00
57606;BME280;43430;48.204;11.556;2022-11-20T10:44:28;95479.72;;;6.82;100.00
57606;BME280;43430;48.204;11.556;2022-11-20T10:47:17;95477.63;;;6.98;100.00
57606;BME280;43430;48.204;11.556;2022-11-20T10:49:49;95473.78;;;7.00;100.00
57606;BME280;43430;48.204;11.556;2022-11-20T11:00:10;95471.31;;;7.05;100.00
57606;BME280;43430;48.204;11.556;2022-11-20T11:02:43;95465.25;;;7.05;100.00
57606;BME280;43430;48.204;11.556;2022-11-20T11:05:17;95458.94;;;6.87;100.00
57606;BME280;43430;48.204;11.556;2022-11-20T11:07:54;95464.59;;;6.84;100.00
57606;BME280;43430;48.204;11.556;2022-11-20T11:10:28;95457.59;;;6.78;100.00
57606;BME280;43430;48.204;11.556;2022-11-20T11:12:56;95468.44;;;6.82;100.00
57606;BME280;43430;48.204;11.556;2022-11-20T11:17:52;95461.81;;;7.11;100.00
57606;BME280;43430;48.204;11.556;2022-11-20T11:20:22;95453.94;;;7.11;100.00
57606;BME280;43430;48.204;11.556;2022-11-20T11:22:50;95452.28;;;7.17;100.00
57606;BME280;43430;48.204;11.556;2022-11-20T11:25:36;95441.47;;;7.06;100.00
57606;BME280;43430;48.204;11.556;2022-11-20T11:28:25;95438.34;;;6.91;100.00
57606;BME280;43430;48.204;11.556;2022-11-20T11:30:51;95445.47;;;6.77;100.00
57606;BME280;43430;48.204;11.556;2022-11-20T11:33:27;95440.88;;;6.73;100.00
57606;BME280;43430;48.204;11.556;2022-11-20T11:35:59;95439.59;;;6.88;100.00
57606;BME280;43430;48.204;11.556;2022-11-20T11:38:36;95439.97;;;6.92;100.00
57606;BME280;43430;48.204;11.556;2022-11-20T11:41:04;95437.84;;;7.07;100.00
57606;BME280;43430;48.204;11.556;2022-11-20T11:43:32;95434.38;;;6.82;100.00
57606;BME280;43430;48.204;11.556;2022-11-20T11:49:17;95440.72;;;6.99;100.00
57606;BME280;43430;48.204;11.556;2022-11-20T11:52:00;95433.91;;;6.92;100.00
57606;BME280;43430;48.204;11.556;2022-11-20T12:00:09;95442.00;;;6.52;100.00
57606;BME280;43430;48.204;11.556;2022-11-20T12:05:22;95438.31;;;6.21;100.00
57606;BME280;43430;48.204;11.556;2022-11-20T12:10:45;95472.28;;;6.34;100.00
57606;BME280;43430;48.204;11.556;2022-11-20T12:13:17;95472.78;;;6.05;100.00
57606;BME280;43430;48.204;11.556;2022-11-20T12:15:47;95472.63;;;5.93;100.00
57606;BME280;43430;48.204;11.556;2022-11-20T12:18:18;95478.22;;;5.90;100.00
57606;BME280;43430;48.204;11.556;2022-11-20T12:26:01;95475.41;;;5.98;100.00
57606;BME280;43430;48.204;11.556;2022-11-20T12:29:07;95469.72;;;6.21;100.00
57606;BME280;43430;48.204;11.556;2022-11-20T12:31:33;95460.03;;;6.22;100.00
57606;BME280;43430;48.204;11.556;2022-11-20T12:34:43;95462.91;;;6.13;100.00
57606;BME280;43430;48.204;11.556;2022-11-20T12:39:48;95467.72;;;6.16;100.00
57606;BME280;43430;48.204;11.556;2022-11-20T12:45:08;95467.75;;;5.90;100.00
57606;BME280;43430;48.204;11.556;2022-11-20T12:53:31;95464.75;;;5.80;100.00
57606;BME280;43430;48.204;11.556;2022-11-20T13:01:24;95462.16;;;5.73;100.00
57606;BME280;43430;48.204;11.556;2022-11-20T13:06:37;95465.56;;;5.80;100.00
57606;BME280;43430;48.204;11.556;2022-11-20T13:09:08;95466.34;;;5.81;100.00
57606;BME280;43430;48.204;11.556;2022-11-20T13:11:47;95463.34;;;5.84;100.00
57606;BME280;43430;48.204;11.556;2022-11-20T13:20:02;95462.56;;;5.63;100.00
57606;BME280;43430;48.204;11.556;2022-11-20T13:22:43;95466.19;;;5.69;100.00
57606;BME280;43430;48.204;11.556;2022-11-20T13:25:21;95454.13;;;5.55;100.00
57606;BME280;43430;48.204;11.556;2022-11-20T13:27:47;95459.94;;;5.63;100.00
57606;BME280;43430;48.204;11.556;2022-11-20T13:30:22;95454.53;;;5.58;100.00
57606;BME280;43430;48.204;11.556;2022-11-20T13:32:53;95459.56;;;5.53;100.00
57606;BME280;43430;48.204;11.556;2022-11-20T13:38:11;95451.72;;;5.46;100.00
57606;BME280;43430;48.204;11.556;2022-11-20T13:40:39;95450.50;;;5.42;100.00
57606;BME280;43430;48.204;11.556;2022-11-20T13:46:01;95447.28;;;5.47;100.00
57606;BME280;43430;48.204;11.556;2022-11-20T13:48:31;95445.47;;;5.61;100.00
57606;BME280;43430;48.204;11.556;2022-11-20T13:59:40;95445.50;;;5.54;100.00
57606;BME280;43430;48.204;11.556;2022-11-20T14:02:16;95448.50;;;5.51;100.00
57606;BME280;43430;48.204;11.556;2022-11-20T14:04:45;95453.34;;;5.54;100.00
57606;BME280;43430;48.204;11.556;2022-11-20T14:07:12;95446.88;;;5.63;100.00
57606;BME280;43430;48.204;11.556;2022-11-20T14:09:38;95440.66;;;5.64;100.00
57606;BME280;43430;48.204;11.556;2022-11-20T14:12:12;95441.22;;;5.73;100.00
57606;BME280;43430;48.204;11.556;2022-11-20T14:14:48;95441.00;;;5.81;100.00
57606;BME280;43430;48.204;11.556;2022-11-20T14:19:49;95451.28;;;5.76;100.00
57606;BME280;43430;48.204;11.556;2022-11-20T14:22:24;95450.09;;;5.72;100.00
57606;BME280;43430;48.204;11.556;2022-11-20T14:27:39;95452.31;;;5.62;100.00
57606;BME280;43430;48.204;11.556;2022-11-20T14:30:05;95450.50;;;5.69;100.00
57606;BME280;43430;48.204;11.556;2022-11-20T14:32:31;95449.09;;;5.60;100.00